Time;durP1;ratioP1;P1;durP2;ratioP2;P2;SDS_P1;SDS_P2;PMS_P1;PMS_P2;Temp;Humidity;BMP_temperature;BMP_pressure;BME280_temperature;BME280_humidity;BME280_pressure;Samples;Min_cycle;Max_cycle;Signal;HPM_P1;HPM_P2
2021/05/29 00:00:45;;;;;;;;;10.75;10.00;;;;;19.30;42.91;101393.75;5064000;28;45637;-89
2021/05/29 00:03:11;;;;;;;;;12.00;10.00;;;;;19.26;43.24;101382.59;5061848;28;45554;-88
2021/05/29 00:05:36;;;;;;;;;9.00;9.00;;;;;19.24;42.85;101386.38;5077986;27;45531;-92
2021/05/29 00:08:02;;;;;;;;;9.25;9.25;;;;;19.20;42.86;101374.38;5062155;28;45640;-84
2021/05/29 00:10:28;;;;;;;;;10.50;9.50;;;;;19.23;43.14;101384.69;5064610;28;45501;-91
2021/05/29 00:12:53;;;;;;;;;8.50;8.50;;;;;19.17;43.20;101377.31;5059625;28;47327;-84
2021/05/29 00:15:19;;;;;;;;;10.75;10.00;;;;;19.17;43.62;101378.13;5062774;28;46850;-82
2021/05/29 00:17:44;;;;;;;;;10.75;10.75;;;;;19.21;43.19;101392.00;5063625;28;45679;-88
2021/05/29 00:23:32;;;;;;;;;11.00;11.00;;;;;19.17;43.85;101393.25;5064478;28;45630;-90
2021/05/29 00:25:57;;;;;;;;;12.75;12.25;;;;;19.12;43.62;101383.06;5063634;28;45495;-82
2021/05/29 00:28:23;;;;;;;;;13.00;11.00;;;;;19.08;43.47;101381.69;5064082;28;45452;-84
2021/05/29 00:30:48;;;;;;;;;13.00;12.00;;;;;19.11;43.74;101384.03;5062771;28;45757;-91
2021/05/29 00:33:14;;;;;;;;;13.00;12.00;;;;;19.09;43.88;101390.50;5064810;28;46415;-91
2021/05/29 00:35:40;;;;;;;;;14.75;13.75;;;;;19.03;43.81;101380.44;5066730;28;46318;-88
2021/05/29 00:38:06;;;;;;;;;10.75;10.00;;;;;19.00;44.07;101386.88;5065308;28;45602;-86
2021/05/29 00:40:33;;;;;;;;;13.50;13.50;;;;;18.97;43.98;101387.16;5064360;28;45515;-89
2021/05/29 00:42:59;;;;;;;;;10.75;10.00;;;;;18.94;44.50;101387.47;5065481;28;45734;-88
2021/05/29 00:45:27;;;;;;;;;14.75;14.00;;;;;18.91;44.77;101387.72;5061292;28;46566;-86
2021/05/29 00:47:52;;;;;;;;;14.25;12.75;;;;;18.86;44.90;101379.38;5060809;28;45762;-82
2021/05/29 00:53:39;;;;;;;;;12.50;12.50;;;;;18.80;44.92;101386.09;5060745;28;45634;-87
2021/05/29 00:56:07;;;;;;;;;14.00;13.00;;;;;18.77;44.78;101383.72;5059549;28;46109;-84
2021/05/29 00:58:33;;;;;;;;;14.25;13.00;;;;;18.71;44.79;101365.72;5060449;28;45761;-83
2021/05/29 01:00:59;;;;;;;;;15.00;14.00;;;;;18.68;44.95;101365.97;5058973;28;45491;-84
2021/05/29 01:03:26;;;;;;;;;13.75;12.25;;;;;18.72;44.91;101380.66;5058480;28;45673;-82
2021/05/29 01:05:51;;;;;;;;;13.25;12.00;;;;;18.67;45.11;101374.09;5055702;28;46653;-81
2021/05/29 01:08:18;;;;;;;;;13.25;13.25;;;;;18.69;45.12;101378.28;5061429;28;45660;-84
2021/05/29 01:10:44;;;;;;;;;14.00;12.25;;;;;18.67;45.32;101374.09;5061533;28;45518;-86
2021/05/29 01:13:11;;;;;;;;;14.75;14.00;;;;;18.68;45.49;101370.44;5063149;28;46317;-82
2021/05/29 01:15:44;;;;;;;;;15.00;14.00;;;;;18.68;45.44;101370.44;5065932;28;46163;-83
2021/05/29 01:18:16;;;;;;;;;14.75;14.25;;;;;18.67;45.20;101376.75;5062726;28;45442;-84
2021/05/29 01:24:04;;;;;;;;;15.00;13.75;;;;;18.66;45.86;101369.78;5057777;28;46157;-82
2021/05/29 01:26:30;;;;;;;;;13.75;12.50;;;;;18.66;45.88;101369.78;5057870;27;45741;-82
2021/05/29 01:28:56;;;;;;;;;14.75;14.00;;;;;18.64;45.96;101369.06;5056338;28;45892;-83
2021/05/29 01:31:31;;;;;;;;;14.25;13.00;;;;;18.59;45.53;101373.97;5058202;28;45531;-81
2021/05/29 01:33:59;;;;;;;;;17.25;16.00;;;;;18.58;45.98;101378.44;5074471;28;47727;-84
2021/05/29 01:36:26;;;;;;;;;16.00;14.25;;;;;18.54;45.82;101381.47;5059526;28;46027;-87
2021/05/29 01:38:52;;;;;;;;;15.00;14.00;;;;;18.48;46.26;101382.03;5059021;28;45579;-82
2021/05/29 01:41:19;;;;;;;;;13.00;12.00;;;;;18.43;45.98;101382.47;5060737;28;45722;-84
2021/05/29 01:43:48;;;;;;;;;14.25;13.25;;;;;18.44;46.24;101392.13;5058666;28;46454;-85
2021/05/29 01:46:16;;;;;;;;;13.75;12.25;;;;;18.40;46.25;101385.41;5058152;28;46050;-82
2021/05/29 01:48:44;;;;;;;;;15.00;13.00;;;;;18.36;46.27;101391.97;5057512;28;45737;-84
2021/05/29 01:51:10;;;;;;;;;17.75;15.50;;;;;18.30;46.87;101396.00;5058358;28;45667;-82
2021/05/29 01:53:36;;;;;;;;;17.75;16.50;;;;;18.27;46.96;101396.31;5057131;28;45582;-83
2021/05/29 01:56:03;;;;;;;;;16.50;15.00;;;;;18.22;46.63;101382.63;5057774;28;45697;-83
2021/05/29 01:58:29;;;;;;;;;15.00;14.50;;;;;18.20;46.63;101391.69;5057596;27;45752;-84
2021/05/29 02:00:54;;;;;;;;;16.25;15.25;;;;;18.22;46.96;101389.75;5073631;27;45833;-82
2021/05/29 02:03:21;;;;;;;;;16.00;15.00;;;;;18.19;47.00;101390.03;5057519;28;46507;-83
2021/05/29 02:09:08;;;;;;;;;15.75;14.00;;;;;18.09;47.14;101395.31;5056655;28;45775;-83
2021/05/29 02:11:34;;;;;;;;;16.50;15.25;;;;;17.99;47.64;101389.16;5055743;28;45599;-83
2021/05/29 02:14:00;;;;;;;;;15.50;14.50;;;;;17.99;47.56;101389.16;5058156;28;45542;-83
2021/05/29 02:16:25;;;;;;;;;17.50;16.75;;;;;17.92;47.47;101383.56;5057089;28;45502;-85
2021/05/29 02:18:51;;;;;;;;;18.75;16.00;;;;;17.90;47.63;101388.19;5058209;28;45792;-83
2021/05/29 02:21:17;;;;;;;;;16.75;15.25;;;;;17.86;47.90;101394.72;5059390;28;45408;-82
2021/05/29 02:23:47;;;;;;;;;17.25;14.00;;;;;17.81;47.68;101391.66;5058363;28;45608;-84
2021/05/29 02:26:15;;;;;;;;;17.00;15.75;;;;;17.77;47.58;101397.34;5058015;28;46278;-83
2021/05/29 02:28:43;;;;;;;;;15.75;15.00;;;;;17.75;47.83;101397.50;5059004;28;45808;-82
2021/05/29 02:31:09;;;;;;;;;16.00;14.25;;;;;17.72;47.86;101394.25;5059795;28;45558;-83
2021/05/29 02:33:36;;;;;;;;;13.75;13.00;;;;;17.72;47.81;101396.91;5060969;28;45345;-85
2021/05/29 02:39:23;;;;;;;;;17.00;14.00;;;;;17.73;48.02;101398.59;5052535;28;45709;-83
2021/05/29 02:41:48;;;;;;;;;20.00;16.25;;;;;17.68;48.13;101391.06;5065230;28;45530;-86
2021/05/29 02:44:14;;;;;;;;;16.75;15.75;;;;;17.67;48.00;101388.53;5061988;28;45612;-85
2021/05/29 02:46:39;;;;;;;;;14.50;14.50;;;;;17.68;48.11;101395.50;5063094;28;45904;-84
2021/05/29 02:49:04;;;;;;;;;16.50;14.50;;;;;17.69;48.35;101407.78;5061416;28;45739;-86
2021/05/29 02:51:30;;;;;;;;;14.75;13.75;;;;;17.63;48.46;101390.63;5062238;28;45806;-86
2021/05/29 02:53:55;;;;;;;;;15.25;14.50;;;;;17.67;48.68;101401.78;5060023;28;45604;-90
2021/05/29 02:56:20;;;;;;;;;19.25;17.25;;;;;17.65;48.81;101409.88;5061451;28;46313;-87
2021/05/29 02:58:46;;;;;;;;;15.50;14.50;;;;;17.62;48.55;101402.19;5061452;28;45887;-86
2021/05/29 03:01:11;;;;;;;;;16.75;14.25;;;;;17.61;48.56;101404.00;5060959;28;45636;-87
2021/05/29 03:03:36;;;;;;;;;16.00;14.75;;;;;17.59;48.71;101397.13;5056011;28;45640;-82
2021/05/29 03:09:24;;;;;;;;;17.75;16.00;;;;;17.56;48.85;101397.38;5059176;28;45526;-86
2021/05/29 03:11:49;;;;;;;;;18.25;15.00;;;;;17.56;48.52;101400.88;5065592;28;45720;-84
2021/05/29 03:14:14;;;;;;;;;15.25;14.00;;;;;17.54;48.99;101402.00;5067046;28;46977;-82
2021/05/29 03:16:40;;;;;;;;;18.50;15.00;;;;;17.53;48.80;101397.69;5056395;28;45662;-83
2021/05/29 03:19:05;;;;;;;;;19.00;16.75;;;;;17.52;48.79;101404.78;5058545;28;45659;-84
2021/05/29 03:24:53;;;;;;;;;14.75;13.75;;;;;17.46;48.97;101413.25;5058039;28;46046;-84
2021/05/29 03:27:18;;;;;;;;;17.00;15.75;;;;;17.41;49.03;101402.22;5060328;28;45960;-84
2021/05/29 03:29:45;;;;;;;;;18.25;16.50;;;;;17.38;49.27;101410.44;5059326;28;45663;-88
2021/05/29 03:32:11;;;;;;;;;17.50;13.75;;;;;17.34;49.38;101400.22;5059025;28;45586;-82
2021/05/29 03:34:37;;;;;;;;;17.25;15.50;;;;;17.36;49.33;101406.25;5055774;28;45676;-83
2021/05/29 03:37:03;;;;;;;;;17.00;16.75;;;;;17.30;49.47;101409.44;5052987;28;47226;-82
2021/05/29 03:39:28;;;;;;;;;18.00;15.25;;;;;17.29;49.44;101411.22;5054830;28;45663;-84
2021/05/29 03:41:53;;;;;;;;;19.00;15.25;;;;;17.20;49.57;101398.78;5055919;28;45538;-85
2021/05/29 03:44:19;;;;;;;;;17.50;16.75;;;;;17.22;49.37;101403.97;5055308;28;46939;-85
2021/05/29 03:46:44;;;;;;;;;15.00;14.25;;;;;17.20;49.92;101417.34;5054768;28;47415;-82
2021/05/29 03:49:10;;;;;;;;;18.75;18.00;;;;;17.17;49.92;101406.97;5054039;28;45921;-83
2021/05/29 03:54:57;;;;;;;;;16.00;16.00;;;;;17.08;49.96;101416.56;5055711;28;46115;-84
2021/05/29 03:57:23;;;;;;;;;17.25;15.75;;;;;17.04;50.18;101425.75;5057029;28;45537;-85
2021/05/29 03:59:51;;;;;;;;;19.25;16.50;;;;;17.04;49.99;101414.31;5058233;28;45632;-82
2021/05/29 04:02:17;;;;;;;;;18.75;17.25;;;;;16.99;50.31;101416.53;5057670;28;45506;-86
2021/05/29 04:04:42;;;;;;;;;16.00;15.00;;;;;17.01;50.27;101427.78;5072665;28;47783;-83
2021/05/29 04:07:07;;;;;;;;;21.75;21.00;;;;;16.96;50.33;101427.34;5059512;28;45484;-84
2021/05/29 04:09:33;;;;;;;;;15.00;15.00;;;;;16.90;50.46;101426.06;5056858;28;45491;-83
2021/05/29 04:11:59;;;;;;;;;19.00;16.75;;;;;16.93;50.48;101436.41;5055939;28;45800;-87
2021/05/29 04:14:24;;;;;;;;;16.00;15.75;;;;;16.92;50.50;101439.19;5055767;28;45616;-83
2021/05/29 04:16:50;;;;;;;;;16.25;15.00;;;;;16.88;50.46;101432.47;5055707;28;45995;-84
2021/05/29 04:19:15;;;;;;;;;21.25;16.75;;;;;16.88;50.76;101427.19;5053925;28;45616;-83
2021/05/29 04:21:41;;;;;;;;;17.00;16.25;;;;;16.85;50.54;101424.78;5052246;28;45575;-83
2021/05/29 04:24:07;;;;;;;;;21.25;19.00;;;;;16.84;50.73;101417.81;5053973;28;46492;-84
2021/05/29 04:26:33;;;;;;;;;20.00;16.75;;;;;16.89;50.76;101432.34;5051895;28;46991;-84
2021/05/29 04:28:58;;;;;;;;;19.25;16.25;;;;;16.84;50.89;101423.13;5054105;28;45682;-84
2021/05/29 04:31:23;;;;;;;;;21.00;18.25;;;;;16.85;51.16;101430.91;5069617;28;45640;-83
2021/05/29 04:33:49;;;;;;;;;19.00;16.50;;;;;16.88;51.37;101433.31;5054027;28;45636;-84
2021/05/29 04:36:14;;;;;;;;;19.75;18.00;;;;;16.86;51.13;101421.16;5053828;28;45808;-84
2021/05/29 04:38:40;;;;;;;;;20.25;17.75;;;;;16.88;51.19;101429.81;5051729;28;45598;-83
2021/05/29 04:41:06;;;;;;;;;23.25;20.25;;;;;16.92;51.17;101436.53;5053718;28;45697;-83
2021/05/29 04:43:31;;;;;;;;;18.50;17.50;;;;;16.91;51.15;101440.97;5053430;28;45463;-84
2021/05/29 04:45:56;;;;;;;;;21.25;19.25;;;;;16.90;51.20;101434.00;5053345;28;45764;-85
2021/05/29 04:48:23;;;;;;;;;20.00;18.50;;;;;16.93;51.31;101447.00;5051743;28;45601;-84
2021/05/29 04:53:32;;;;;;;;;21.75;18.25;;;;;16.92;51.19;101436.53;5053376;28;46111;-85
2021/05/29 04:56:00;;;;;;;;;19.25;16.50;;;;;16.94;51.34;101445.19;5053125;28;45584;-84
2021/05/29 04:58:26;;;;;;;;;18.75;17.00;;;;;16.92;51.32;101441.81;5051694;28;45779;-83
2021/05/29 05:00:52;;;;;;;;;22.25;19.25;;;;;17.00;50.94;101452.63;5053265;28;45617;-84
2021/05/29 05:03:17;;;;;;;;;18.25;17.50;;;;;16.99;51.32;101456.22;5055382;28;45661;-84
2021/05/29 05:05:43;;;;;;;;;19.00;18.25;;;;;16.97;51.33;101442.28;5056320;28;46138;-83
2021/05/29 05:08:08;;;;;;;;;22.00;17.75;;;;;17.00;51.34;101449.97;5056347;28;45610;-85
2021/05/29 05:10:34;;;;;;;;;21.50;19.25;;;;;17.06;51.26;101457.38;5056594;28;45819;-83
2021/05/29 05:12:59;;;;;;;;;20.50;19.50;;;;;17.05;51.30;101453.06;5056442;28;46435;-84
2021/05/29 05:15:25;;;;;;;;;20.50;17.50;;;;;17.02;51.27;101446.22;5056407;28;45692;-83
2021/05/29 05:17:51;;;;;;;;;21.50;19.50;;;;;17.04;51.30;101452.22;5056222;28;45588;-85
2021/05/29 05:20:17;;;;;;;;;23.25;21.50;;;;;17.12;51.45;101462.16;5056744;28;45454;-87
2021/05/29 05:22:43;;;;;;;;;22.00;19.50;;;;;17.07;51.25;101454.59;5056327;28;46386;-83
2021/05/29 05:25:09;;;;;;;;;22.00;21.00;;;;;17.12;50.83;101463.00;5057722;28;45502;-84
2021/05/29 05:27:35;;;;;;;;;19.75;18.00;;;;;17.09;51.36;101460.63;5058278;27;45477;-85
2021/05/29 05:30:01;;;;;;;;;20.25;19.00;;;;;17.15;51.34;101459.25;5058897;28;45551;-82
2021/05/29 05:32:27;;;;;;;;;21.25;19.00;;;;;17.19;51.20;101466.81;5060242;28;45597;-83
2021/05/29 05:34:52;;;;;;;;;18.75;16.75;;;;;17.18;51.50;101461.63;5058234;28;45642;-85
2021/05/29 05:40:39;;;;;;;;;21.00;19.50;;;;;17.29;51.51;101473.97;5047729;28;45735;-85
2021/05/29 05:43:05;;;;;;;;;22.50;21.25;;;;;17.29;51.14;101472.16;5057238;28;45845;-85
2021/05/29 05:45:30;;;;;;;;;18.50;18.25;;;;;17.37;51.27;101469.72;5056962;28;45708;-85
2021/05/29 05:47:56;;;;;;;;;21.50;19.75;;;;;17.36;51.08;101465.38;5057409;28;45680;-85
2021/05/29 05:50:22;;;;;;;;;25.00;21.00;;;;;17.40;51.30;101474.72;5057057;28;45644;-87
2021/05/29 05:52:48;;;;;;;;;20.50;20.00;;;;;17.46;51.24;101486.59;5056780;28;48639;-85
2021/05/29 05:55:14;;;;;;;;;21.75;19.50;;;;;17.49;51.50;101489.00;5059698;28;45767;-87
2021/05/29 05:57:40;;;;;;;;;22.75;21.00;;;;;17.49;51.00;101483.72;5058654;28;45668;-84
2021/05/29 06:00:13;;;;;;;;;18.75;18.75;;;;;17.53;51.17;101493.91;5057731;28;45543;-84
2021/05/29 06:02:39;;;;;;;;;21.50;20.50;;;;;17.57;51.25;101497.97;5057109;28;46764;-84
2021/05/29 06:05:05;;;;;;;;;21.50;20.00;;;;;17.59;50.91;101504.03;5058857;28;46167;-84
2021/05/29 06:10:52;;;;;;;;;22.25;21.00;;;;;17.71;51.16;101517.16;5055904;28;45609;-86
2021/05/29 06:21:49;;;;;;;;;20.00;18.00;;;;;17.87;51.18;101525.44;5074969;28;45728;-85
2021/05/29 06:24:20;;;;;;;;;22.00;20.75;;;;;17.89;50.65;101524.38;5057031;28;48605;-84
2021/05/29 06:26:47;;;;;;;;;22.00;19.75;;;;;17.95;50.91;101526.47;5074563;28;46160;-88
2021/05/29 06:29:12;;;;;;;;;18.75;17.50;;;;;18.02;50.77;101527.63;5091179;27;45656;-85
2021/05/29 06:31:38;;;;;;;;;17.75;17.50;;;;;18.11;50.57;101535.75;5077115;28;45679;-83
2021/05/29 06:34:04;;;;;;;;;21.25;19.25;;;;;18.16;50.29;101530.88;5080967;28;47750;-83
2021/05/29 06:36:30;;;;;;;;;18.50;17.75;;;;;18.18;50.17;101528.94;5080352;28;45741;-85
2021/05/29 06:38:56;;;;;;;;;21.00;19.00;;;;;18.22;50.08;101531.19;5079042;28;45692;-87
2021/05/29 06:41:23;;;;;;;;;19.50;18.25;;;;;18.31;50.18;101540.97;5075903;28;46076;-84
2021/05/29 06:43:49;;;;;;;;;22.00;20.75;;;;;18.31;50.11;101533.00;5076902;28;45746;-81
2021/05/29 06:46:14;;;;;;;;;21.00;18.25;;;;;18.37;49.92;101535.13;5075691;28;45730;-83
2021/05/29 06:48:40;;;;;;;;;23.75;20.75;;;;;18.47;49.92;101540.44;5074828;28;45702;-85
2021/05/29 06:51:06;;;;;;;;;26.25;22.75;;;;;18.53;49.96;101531.94;5071456;28;45713;-87
2021/05/29 06:53:40;;;;;;;;;17.25;16.50;;;;;18.57;50.23;101532.53;5056782;28;45725;-86
2021/05/29 06:58:51;;;;;;;;;11.25;11.25;;;;;18.60;49.53;101522.47;5056410;28;45548;-83
2021/05/29 07:01:22;;;;;;;;;13.75;12.75;;;;;18.71;49.68;101532.13;5056410;28;45526;-85
2021/05/29 07:03:48;;;;;;;;;12.50;11.00;;;;;18.78;49.41;101530.59;5057621;28;46393;-82
2021/05/29 07:06:14;;;;;;;;;11.50;10.75;;;;;18.84;48.89;101537.97;5060040;28;46077;-82
2021/05/29 07:08:40;;;;;;;;;10.75;9.25;;;;;18.91;48.47;101544.41;5060943;28;45625;-82
2021/05/29 07:11:06;;;;;;;;;9.25;9.25;;;;;18.91;48.40;101536.44;5057494;28;45507;-84
2021/05/29 07:13:31;;;;;;;;;8.00;6.50;;;;;19.00;48.15;101542.75;5052929;28;48210;-81
2021/05/29 07:15:57;;;;;;;;;11.25;11.00;;;;;19.05;48.20;101543.19;5069525;28;48247;-82
2021/05/29 07:18:25;;;;;;;;;10.50;10.00;;;;;19.06;47.89;101543.00;5054239;28;45682;-83
2021/05/29 07:20:51;;;;;;;;;9.50;7.75;;;;;19.15;47.77;101549.31;5054680;28;45704;-83
2021/05/29 07:26:39;;;;;;;;;7.00;6.00;;;;;19.24;46.87;101551.13;5053224;28;45631;-82
2021/05/29 07:29:07;;;;;;;;;6.50;5.75;;;;;19.29;46.64;101556.84;5055002;28;45720;-79
2021/05/29 07:31:33;;;;;;;;;8.50;7.00;;;;;19.35;47.07;101550.97;5055310;28;45620;-81
2021/05/29 07:33:59;;;;;;;;;7.50;6.75;;;;;19.33;46.63;101536.97;5054527;28;46282;-82
2021/05/29 07:36:24;;;;;;;;;5.00;5.00;;;;;19.44;46.58;101550.09;5052419;28;48292;-81
2021/05/29 07:38:51;;;;;;;;;6.00;5.75;;;;;19.50;46.42;101552.22;5054258;28;45644;-81
2021/05/29 07:41:16;;;;;;;;;7.25;6.00;;;;;19.54;45.90;101553.59;5053893;28;45682;-84
2021/05/29 07:43:42;;;;;;;;;15.50;14.75;;;;;19.63;46.13;101559.88;5054108;28;46214;-80
2021/05/29 07:46:08;;;;;;;;;8.00;8.00;;;;;19.66;45.56;101555.09;5053991;28;46097;-82
2021/05/29 07:48:34;;;;;;;;;7.00;7.00;;;;;19.68;45.87;101553.16;5054307;28;45720;-81
2021/05/29 07:51:01;;;;;;;;;5.00;5.00;;;;;19.75;45.83;101556.09;5054004;28;45510;-82
2021/05/29 07:56:50;;;;;;;;;4.00;4.00;;;;;19.86;45.15;101555.06;5053764;28;45862;-82
2021/05/29 07:59:17;;;;;;;;;6.25;6.00;;;;;19.93;45.43;101558.78;5053918;28;45731;-80
2021/05/29 08:01:43;;;;;;;;;5.75;5.00;;;;;19.98;45.09;101562.69;5054611;28;45610;-81
2021/05/29 08:04:10;;;;;;;;;6.25;5.75;;;;;20.01;44.67;101554.44;5053962;28;46327;-80
2021/05/29 08:06:36;;;;;;;;;7.00;6.75;;;;;20.03;44.87;101557.75;5053754;28;46596;-82
2021/05/29 08:09:05;;;;;;;;;6.25;6.25;;;;;20.13;44.81;101572.88;5053971;28;45711;-80
2021/05/29 08:11:30;;;;;;;;;7.00;7.00;;;;;20.13;44.29;101558.56;5053906;28;45644;-82
2021/05/29 08:13:57;;;;;;;;;5.00;4.75;;;;;20.20;44.58;101561.47;5068944;28;47373;-80
2021/05/29 08:16:23;;;;;;;;;5.00;5.00;;;;;20.27;44.16;101561.72;5053435;28;45999;-80
2021/05/29 08:18:50;;;;;;;;;5.50;5.50;;;;;20.30;44.18;101562.25;5053549;28;45570;-80
2021/05/29 08:21:16;;;;;;;;;7.25;5.25;;;;;20.35;43.57;101568.00;5053860;28;45740;-81
2021/05/29 08:27:03;;;;;;;;;5.25;5.00;;;;;20.46;43.57;101572.28;5053138;28;45804;-81
2021/05/29 08:29:29;;;;;;;;;5.00;4.25;;;;;20.51;43.27;101578.84;5053749;28;45622;-80
2021/05/29 08:31:54;;;;;;;;;5.25;4.25;;;;;20.56;43.60;101575.75;5052045;28;45629;-81
2021/05/29 08:34:20;;;;;;;;;4.00;4.00;;;;;20.61;42.88;101580.63;5053819;28;45826;-80
2021/05/29 08:36:45;;;;;;;;;5.50;5.50;;;;;20.67;42.78;101580.03;5053599;28;45693;-80
2021/05/29 08:39:11;;;;;;;;;4.75;4.25;;;;;20.71;43.29;101576.06;5057101;28;45925;-79
2021/05/29 08:41:38;;;;;;;;;5.00;5.00;;;;;20.74;42.72;101581.91;5056628;28;45622;-81
2021/05/29 08:44:05;;;;;;;;;4.00;4.00;;;;;20.76;42.62;101569.28;5057258;28;45562;-80
2021/05/29 08:46:31;;;;;;;;;4.25;4.25;;;;;20.75;42.08;101566.78;5057161;28;46086;-80
2021/05/29 08:48:59;;;;;;;;;4.00;4.00;;;;;20.82;42.06;101574.00;5057288;28;45636;-80
2021/05/29 08:51:25;;;;;;;;;4.50;4.50;;;;;20.82;41.82;101574.00;5057029;28;45537;-81
2021/05/29 08:57:19;;;;;;;;;5.75;4.75;;;;;20.94;41.55;101577.28;5056341;28;45767;-79
2021/05/29 08:59:44;;;;;;;;;3.50;3.00;;;;;20.99;41.64;101582.16;5056483;28;45681;-81
2021/05/29 09:02:11;;;;;;;;;4.00;4.00;;;;;20.98;41.26;101578.66;5055131;28;45547;-82
2021/05/29 09:05:00;;;;;;;;;4.25;4.25;;;;;21.03;41.15;101580.88;5056375;28;46723;-81
2021/05/29 09:07:26;;;;;;;;;5.25;4.00;;;;;21.02;41.23;101574.69;5055013;28;47507;-79
2021/05/29 09:10:15;;;;;;;;;3.75;3.75;;;;;21.05;41.19;101571.75;5056664;28;45642;-80
2021/05/29 09:13:04;;;;;;;;;4.75;4.25;;;;;21.06;41.10;101584.03;5056766;28;45607;-80
2021/05/29 09:15:40;;;;;;;;;5.00;4.00;;;;;21.07;40.78;101576.88;5071109;28;46852;-79
2021/05/29 09:18:06;;;;;;;;;4.50;4.00;;;;;21.04;40.59;101577.22;5056050;28;45985;-81
2021/05/29 09:20:31;;;;;;;;;2.00;2.00;;;;;21.04;40.94;101586.03;5055346;28;45957;-81
2021/05/29 09:22:58;;;;;;;;;3.00;3.00;;;;;21.06;40.59;101583.19;5055904;28;45860;-80
2021/05/29 09:25:26;;;;;;;;;3.00;3.00;;;;;21.11;40.20;101592.41;5055556;28;47463;-81
2021/05/29 09:28:00;;;;;;;;;6.00;5.00;;;;;21.09;40.16;101589.09;5056164;28;46087;-80
2021/05/29 09:30:39;;;;;;;;;5.50;4.75;;;;;21.14;40.51;101584.16;5056267;28;45647;-82
2021/05/29 09:33:22;;;;;;;;;4.50;4.50;;;;;21.15;40.37;101591.19;5056488;28;45769;-80
2021/05/29 09:35:59;;;;;;;;;4.00;3.00;;;;;21.12;39.96;101583.44;5055972;28;46305;-78
2021/05/29 09:38:40;;;;;;;;;4.75;4.00;;;;;21.16;39.34;101584.03;5056022;28;46194;-79
2021/05/29 09:41:33;;;;;;;;;4.00;4.00;;;;;21.12;39.44;101578.09;5055779;28;45766;-81
2021/05/29 09:44:02;;;;;;;;;4.25;4.00;;;;;21.15;39.44;101588.50;5055964;28;45729;-81
2021/05/29 09:46:28;;;;;;;;;3.25;3.00;;;;;21.13;39.18;101578.94;5054413;28;47393;-81
2021/05/29 09:48:58;;;;;;;;;5.75;5.00;;;;;21.15;39.19;101593.00;5055006;28;46010;-81
2021/05/29 09:51:25;;;;;;;;;3.25;3.25;;;;;21.20;38.99;101590.72;5055419;28;45660;-79
2021/05/29 09:53:52;;;;;;;;;3.50;3.50;;;;;21.23;38.79;101593.06;5055275;28;45494;-80
2021/05/29 09:56:29;;;;;;;;;4.00;4.00;;;;;21.26;38.30;101595.44;5055430;28;45809;-79
2021/05/29 09:59:00;;;;;;;;;3.75;3.75;;;;;21.29;38.14;101592.44;5055766;28;46070;-83
2021/05/29 10:01:44;;;;;;;;;4.00;4.00;;;;;21.35;38.11;101602.50;5055678;28;45688;-84
2021/05/29 10:04:21;;;;;;;;;4.25;3.50;;;;;21.36;38.26;101598.84;5055281;28;45448;-80
2021/05/29 10:07:00;;;;;;;;;3.75;3.00;;;;;21.38;38.21;101586.16;5055340;28;45896;-80
2021/05/29 10:09:26;;;;;;;;;5.00;5.00;;;;;21.43;38.34;101599.88;5056366;28;46177;-81
2021/05/29 10:11:52;;;;;;;;;3.50;3.50;;;;;21.46;38.45;101593.41;5055564;28;45483;-82
2021/05/29 10:14:18;;;;;;;;;4.75;4.00;;;;;21.52;38.08;101604.28;5055496;28;45547;-81
2021/05/29 10:16:44;;;;;;;;;4.75;4.75;;;;;21.58;37.90;101600.16;5070360;28;47845;-82
2021/05/29 10:19:10;;;;;;;;;5.00;4.25;;;;;21.58;37.89;101594.84;5055420;28;45952;-82
2021/05/29 10:21:37;;;;;;;;;4.75;4.75;;;;;21.62;37.95;101605.03;5055146;28;45819;-81
2021/05/29 10:24:05;;;;;;;;;6.25;5.00;;;;;21.61;37.89;101584.69;5055357;28;45794;-80
2021/05/29 10:26:32;;;;;;;;;5.00;4.00;;;;;21.70;38.00;101594.41;5055283;28;45702;-80
2021/05/29 10:28:58;;;;;;;;;3.00;3.00;;;;;21.71;37.60;101595.25;5053814;28;47279;-79
2021/05/29 10:31:34;;;;;;;;;4.75;4.00;;;;;21.74;37.36;101603.78;5055243;28;45454;-80
2021/05/29 10:34:01;;;;;;;;;4.00;3.50;;;;;21.75;37.43;101601.97;5055376;28;45490;-79
2021/05/29 10:36:50;;;;;;;;;4.50;4.00;;;;;21.78;37.19;101596.28;5054946;28;46825;-79
2021/05/29 10:39:36;;;;;;;;;4.00;4.00;;;;;21.81;36.69;101603.16;5055185;28;45605;-80
2021/05/29 10:42:05;;;;;;;;;3.50;3.50;;;;;21.82;36.51;101611.00;5054743;27;45899;-79
2021/05/29 10:44:36;;;;;;;;;3.75;3.00;;;;;21.81;36.56;101601.31;5055871;28;45756;-80
2021/05/29 10:47:20;;;;;;;;;4.00;4.00;;;;;21.85;36.66;101601.84;5055154;28;45527;-78
2021/05/29 10:49:49;;;;;;;;;3.50;3.00;;;;;21.90;36.54;101600.38;5055451;28;46209;-78
2021/05/29 10:52:36;;;;;;;;;4.00;3.50;;;;;21.94;36.40;101603.56;5055092;28;45518;-78
2021/05/29 10:55:13;;;;;;;;;4.00;4.00;;;;;21.99;36.54;101609.28;5012711;28;45852;-81
2021/05/29 10:57:50;;;;;;;;;4.00;3.00;;;;;22.03;35.97;101606.13;5013559;28;47560;-82
2021/05/29 11:00:35;;;;;;;;;4.00;4.00;;;;;22.07;36.29;101601.34;5011197;28;46631;-80
2021/05/29 11:03:19;;;;;;;;;4.00;4.00;;;;;22.10;36.31;101601.84;5012706;28;45785;-79
2021/05/29 11:05:56;;;;;;;;;4.75;4.75;;;;;22.10;35.84;101603.69;5012468;28;45709;-79
2021/05/29 11:14:13;;;;;;;;;3.50;3.50;;;;;22.17;35.90;101596.72;5011756;28;45776;-80
2021/05/29 11:16:51;;;;;;;;;4.00;4.00;;;;;22.21;35.70;101595.38;5012521;28;45675;-82
2021/05/29 11:19:23;;;;;;;;;4.25;4.25;;;;;22.24;35.90;101594.25;5012186;28;45897;-81
2021/05/29 11:22:10;;;;;;;;;3.25;3.25;;;;;22.27;35.82;101601.91;5012538;28;45691;-83
2021/05/29 11:27:58;;;;;;;;;4.00;4.00;;;;;22.25;36.04;101588.72;5012256;28;45821;-79
2021/05/29 11:30:26;;;;;;;;;4.00;3.75;;;;;22.29;35.54;101589.25;5011826;28;46278;-80
2021/05/29 11:35:35;;;;;;;;;5.25;4.50;;;;;22.33;35.79;101595.94;5053958;28;45732;-80
2021/05/29 11:42:32;;;;;;;;;5.00;4.25;;;;;22.32;35.45;101600.44;5033625;28;46091;-81
2021/05/29 11:45:18;;;;;;;;;4.50;4.50;;;;;22.29;35.92;101592.75;5033738;28;46089;-80
2021/05/29 11:47:44;;;;;;;;;4.00;3.00;;;;;22.32;35.82;101611.13;5033831;28;45627;-80
2021/05/29 11:50:16;;;;;;;;;4.75;4.00;;;;;22.29;35.35;101589.25;5033990;28;45815;-79
2021/05/29 11:52:45;;;;;;;;;4.25;4.00;;;;;22.30;34.92;101598.91;5033733;28;45818;-81
2021/05/29 11:58:59;;;;;;;;;2.00;2.00;;;;;22.19;34.97;101584.03;5034147;28;45556;-79
2021/05/29 12:01:28;;;;;;;;;4.50;4.00;;;;;22.21;35.10;101586.53;5033514;28;45547;-78
2021/05/29 12:03:59;;;;;;;;;4.00;4.00;;;;;22.25;35.29;101595.88;5033499;28;46896;-79
2021/05/29 12:06:45;;;;;;;;;4.00;3.25;;;;;22.30;35.21;101591.75;5033410;28;46274;-79
2021/05/29 12:09:14;;;;;;;;;4.50;4.00;;;;;22.32;35.30;101583.56;5033631;28;45677;-78
2021/05/29 12:11:42;;;;;;;;;5.00;5.00;;;;;22.33;34.90;101586.09;5035237;28;45789;-79
2021/05/29 12:14:13;;;;;;;;;4.00;4.00;;;;;22.34;35.29;101578.94;5037116;28;45641;-80
2021/05/29 12:16:44;;;;;;;;;4.00;4.00;;;;;22.32;35.31;101578.25;5035260;28;46244;-79
2021/05/29 12:19:49;;;;;;;;;5.75;5.00;;;;;22.38;35.37;101588.28;5037066;28;45770;-80
2021/05/29 12:22:16;;;;;;;;;4.25;4.25;;;;;22.41;35.22;101579.94;5035044;28;45647;-80
2021/05/29 12:24:51;;;;;;;;;4.00;4.00;;;;;22.46;35.53;101577.59;5034429;28;45544;-80
2021/05/29 12:27:22;;;;;;;;;4.00;3.50;;;;;22.52;35.33;101587.66;5034542;28;46484;-81
2021/05/29 12:29:48;;;;;;;;;3.50;3.50;;;;;22.55;35.11;101577.50;5034700;28;45710;-79
2021/05/29 12:32:39;;;;;;;;;3.25;3.00;;;;;22.60;35.19;101585.00;5034892;28;45809;-83
2021/05/29 12:35:30;;;;;;;;;4.00;4.00;;;;;22.62;34.76;101582.19;5034541;28;45608;-79
2021/05/29 12:38:09;;;;;;;;;5.00;5.00;;;;;22.62;34.72;101583.00;5035186;28;45881;-81
2021/05/29 12:40:35;;;;;;;;;3.25;3.25;;;;;22.63;35.16;101579.31;5034451;28;45691;-80
2021/05/29 12:43:01;;;;;;;;;4.00;3.00;;;;;22.66;35.05;101587.03;5034664;28;45932;-80